createdAt,value
2018-01-04T05:46:54.354Z,48.40
2018-01-04T05:49:21.947Z,48.50
2018-01-04T05:51:50.343Z,48.50
2018-01-04T05:54:17.935Z,48.50
2018-01-04T05:56:45.530Z,48.40
2018-01-04T05:59:13.141Z,48.90
2018-01-04T06:01:40.739Z,48.70
2018-01-04T06:04:08.440Z,49.10
2018-01-04T06:06:36.788Z,51.00
2018-01-04T06:09:04.374Z,50.90
2018-01-04T06:11:31.996Z,52.10
2018-01-04T06:13:59.618Z,52.50
2018-01-04T06:16:27.278Z,53.20
2018-01-04T06:18:54.981Z,53.80
2018-01-04T06:21:22.765Z,53.70
2018-01-04T06:23:50.421Z,54.30
2018-01-04T06:26:18.019Z,54.30
2018-01-04T06:28:45.657Z,54.50
2018-01-04T06:31:13.271Z,54.60
2018-01-04T06:33:40.901Z,54.70
2018-01-04T06:36:08.534Z,54.70
2018-01-04T06:38:36.895Z,55.50
2018-01-04T06:41:04.517Z,55.30
2018-01-04T06:43:32.115Z,55.30
2018-01-04T06:46:01.245Z,56.10
2018-01-04T06:48:29.610Z,55.60
2018-01-04T06:50:57.203Z,55.50
2018-01-04T06:53:24.920Z,55.80
2018-01-04T06:55:52.551Z,55.90
2018-01-04T06:58:20.943Z,56.10
2018-01-04T07:00:48.543Z,56.20
2018-01-04T07:03:16.898Z,56.70
2018-01-04T07:05:44.515Z,56.70
2018-01-04T07:08:12.881Z,57.10
2018-01-04T07:10:40.510Z,57.00
2018-01-04T07:13:08.125Z,57.00
2018-01-04T07:15:36.560Z,57.40
2018-01-04T07:18:04.164Z,57.40
2018-01-04T07:20:33.269Z,57.60
2018-01-04T07:23:00.898Z,57.60
2018-01-04T07:25:28.478Z,57.40
2018-01-04T07:27:56.086Z,57.80
2018-01-04T07:30:23.736Z,57.90
2018-01-04T07:32:51.360Z,58.30
2018-01-04T07:35:18.976Z,58.90
2018-01-04T07:37:47.355Z,58.50
2018-01-04T07:40:15.742Z,58.20
2018-01-04T07:42:44.101Z,58.20
2018-01-04T07:45:12.478Z,58.50
2018-01-04T07:47:40.109Z,58.40
2018-01-04T07:50:07.880Z,58.50
2018-01-04T07:52:35.509Z,58.60
2018-01-04T07:55:03.974Z,58.80
2018-01-04T07:57:31.602Z,58.80
2018-01-04T07:59:59.197Z,58.90
2018-01-04T08:02:27.672Z,58.70
2018-01-04T08:04:55.314Z,58.70
2018-01-04T08:07:22.888Z,58.40
2018-01-04T08:09:50.675Z,58.40
2018-01-04T08:12:18.276Z,58.50
2018-01-04T08:14:46.659Z,59.30
2018-01-04T08:17:15.073Z,59.80
2018-01-04T08:19:42.805Z,59.80
2018-01-04T08:22:10.400Z,60.10
2018-01-04T08:24:38.008Z,60.10
2018-01-04T08:27:06.391Z,60.20
2018-01-04T08:29:33.981Z,60.20
2018-01-04T08:32:01.593Z,60.20
2018-01-04T08:34:29.227Z,60.20
2018-01-04T08:36:57.805Z,60.00
2018-01-04T08:39:26.169Z,59.90
2018-01-04T08:41:54.527Z,59.90
2018-01-04T08:44:22.153Z,59.80
2018-01-04T08:46:50.527Z,59.50
2018-01-04T08:49:18.950Z,59.40
2018-01-04T08:51:46.600Z,59.30
2018-01-04T08:54:14.952Z,59.00
2018-01-04T08:56:42.631Z,59.00
2018-01-04T08:59:11.056Z,59.00
2018-01-04T09:01:38.682Z,59.00
2018-01-04T09:04:07.048Z,60.30
2018-01-04T09:06:34.640Z,60.20
2018-01-04T09:09:02.256Z,61.40
2018-01-04T09:11:29.843Z,61.70
2018-01-04T09:13:57.484Z,62.00
2018-01-04T09:16:25.084Z,62.60
2018-01-04T09:18:53.463Z,63.30
2018-01-04T09:21:21.058Z,63.20
2018-01-04T09:23:48.703Z,64.00
2018-01-04T09:26:17.058Z,64.00
2018-01-04T09:28:44.655Z,63.90
2018-01-04T09:31:13.088Z,65.00
2018-01-04T09:33:40.685Z,65.00
2018-01-04T09:36:08.353Z,65.30
2018-01-04T09:38:35.943Z,65.40
2018-01-04T09:41:04.328Z,65.00
2018-01-04T09:43:32.686Z,64.60
2018-01-04T09:46:00.312Z,64.60
2018-01-04T09:48:27.914Z,64.70
2018-01-04T09:50:55.512Z,65.10
2018-01-04T09:53:23.116Z,64.90
2018-01-04T09:55:50.728Z,65.10
2018-01-04T09:58:19.545Z,65.60
2018-01-04T10:00:47.416Z,65.50
2018-01-04T10:03:15.080Z,65.10
2018-01-04T10:05:42.691Z,65.20
2018-01-04T10:08:10.296Z,64.00
2018-01-04T10:10:38.688Z,64.40
2018-01-04T10:13:06.299Z,64.40
2018-01-04T10:15:33.961Z,64.20
2018-01-04T10:18:01.548Z,64.30
2018-01-04T10:20:29.936Z,65.10
2018-01-04T10:22:57.640Z,65.10
2018-01-04T10:25:25.196Z,65.00
2018-01-04T10:27:52.823Z,65.30
2018-01-04T10:30:20.432Z,65.20
2018-01-04T10:32:48.065Z,65.10
2018-01-04T10:35:16.452Z,66.20
2018-01-04T10:37:44.053Z,65.60
2018-01-04T10:40:11.677Z,65.40
2018-01-04T10:42:39.272Z,65.60
2018-01-04T10:45:07.654Z,65.70
2018-01-04T10:47:36.027Z,65.80
2018-01-04T10:50:04.446Z,66.20
2018-01-04T10:52:32.064Z,66.10
2018-01-04T10:54:59.654Z,66.40
2018-01-04T10:57:28.135Z,66.20
2018-01-04T10:59:56.479Z,66.20
2018-01-04T11:02:24.111Z,66.20
2018-01-04T11:04:51.698Z,65.90
2018-01-04T11:07:19.316Z,66.20
2018-01-04T11:09:47.683Z,66.50
2018-01-04T11:12:16.054Z,67.00
2018-01-04T11:14:44.462Z,66.80
2018-01-04T11:17:12.865Z,66.90
2018-01-04T11:19:40.517Z,66.90
2018-01-04T11:22:08.880Z,67.20
2018-01-04T11:24:36.495Z,67.20
2018-01-04T11:27:04.130Z,67.40
2018-01-04T11:29:32.528Z,67.10
2018-01-04T11:32:00.242Z,67.10
2018-01-04T11:34:27.929Z,67.30
2018-01-04T11:36:55.550Z,66.80
2018-01-04T11:39:23.140Z,67.60
2018-01-04T11:41:50.780Z,66.80
2018-01-04T11:44:18.449Z,66.40
2018-01-04T11:46:46.097Z,66.80
2018-01-04T11:49:13.723Z,66.80
2018-01-04T11:51:41.326Z,66.00
2018-01-04T11:54:09.008Z,66.80
2018-01-04T11:56:36.605Z,67.30
2018-01-04T11:59:04.254Z,67.30
2018-01-04T12:01:31.853Z,67.60
2018-01-04T12:03:59.466Z,67.60
2018-01-04T12:06:27.067Z,68.10
2018-01-04T12:08:54.729Z,67.50
2018-01-04T12:11:22.327Z,67.10
2018-01-04T12:13:50.701Z,66.70
2018-01-04T12:16:18.316Z,66.70
2018-01-04T12:18:45.923Z,66.80
2018-01-04T12:21:13.532Z,67.30
2018-01-04T12:23:41.140Z,67.40
2018-01-04T12:26:08.731Z,67.50
2018-01-04T12:28:37.121Z,67.60
2018-01-04T12:31:05.482Z,67.70
2018-01-04T12:33:33.164Z,67.70
2018-01-04T12:36:00.768Z,67.90
2018-01-04T12:38:28.400Z,68.10
2018-01-04T12:40:56.134Z,68.00
2018-01-04T12:43:23.729Z,67.40
2018-01-04T12:45:51.387Z,67.70
2018-01-04T12:48:18.994Z,67.80
2018-01-04T12:50:46.619Z,67.50
2018-01-04T12:53:14.989Z,67.80
2018-01-04T12:55:42.587Z,67.80
2018-01-04T12:58:10.968Z,67.80
2018-01-04T13:00:39.353Z,67.60
2018-01-04T13:03:07.762Z,67.60
2018-01-04T13:05:35.369Z,67.60
2018-01-04T13:08:02.994Z,67.30
2018-01-04T13:10:30.625Z,67.10
2018-01-04T13:12:59.039Z,67.50
2018-01-04T13:15:26.648Z,67.50
2018-01-04T13:17:54.448Z,67.80
2018-01-04T13:20:23.089Z,67.70
2018-01-04T13:22:50.911Z,67.60
2018-01-04T13:25:19.287Z,67.60
2018-01-04T13:27:46.928Z,67.50
2018-01-04T13:30:14.539Z,67.80
2018-01-04T13:32:42.922Z,68.00
2018-01-04T13:35:11.276Z,68.30
2018-01-04T13:37:38.905Z,68.30
2018-01-04T13:40:06.708Z,68.20
2018-01-04T13:42:35.827Z,68.50
2018-01-04T13:45:04.226Z,68.50
2018-01-04T13:47:31.842Z,68.50
2018-01-04T13:49:59.650Z,68.40
2018-01-04T13:52:28.033Z,68.80
2018-01-04T13:54:56.483Z,68.90
2018-01-04T13:57:24.900Z,68.90
2018-01-04T13:59:53.292Z,68.90
2018-01-04T14:02:21.698Z,68.80
2018-01-04T14:04:49.288Z,68.80
2018-01-04T14:07:16.896Z,68.90
2018-01-04T14:09:46.372Z,68.80
2018-01-04T14:12:13.995Z,68.80
2018-01-04T14:14:41.624Z,68.80
2018-01-04T14:17:09.997Z,68.60
2018-01-04T14:19:39.118Z,68.30
2018-01-04T14:22:07.504Z,67.80
2018-01-04T14:24:35.968Z,67.80
2018-01-04T14:27:05.193Z,68.20
2018-01-04T14:29:33.650Z,68.00
2018-01-04T14:32:01.228Z,67.90
2018-01-04T14:34:28.842Z,68.00
2018-01-04T14:36:56.455Z,68.50
2018-01-04T14:39:24.070Z,67.00
2018-01-04T14:41:51.677Z,67.20
2018-01-04T14:44:20.058Z,67.30
2018-01-04T14:46:47.682Z,67.30
2018-01-04T14:49:15.279Z,67.70
2018-01-04T14:51:42.912Z,68.00
2018-01-04T14:54:10.513Z,68.40
2018-01-04T14:56:38.117Z,68.70
2018-01-04T14:59:06.597Z,68.90
2018-01-04T15:01:35.066Z,68.90
2018-01-04T15:04:02.697Z,68.90
2018-01-04T15:06:30.331Z,69.20
2018-01-04T15:08:57.973Z,69.30
2018-01-04T15:11:26.348Z,69.50
2018-01-04T15:13:53.944Z,69.50
2018-01-04T15:16:22.419Z,69.70
2018-01-04T15:18:50.807Z,69.80
2018-01-04T15:21:19.219Z,70.00
2018-01-04T15:23:46.831Z,70.00
2018-01-04T15:26:15.928Z,70.70
2018-01-04T15:28:43.565Z,70.70
2018-01-04T15:31:11.190Z,70.80
2018-01-04T15:33:39.600Z,71.20
2018-01-04T15:36:07.961Z,71.30
2018-01-04T15:38:36.328Z,71.30
2018-01-04T15:41:04.686Z,71.20
2018-01-04T15:43:33.224Z,71.40
2018-01-04T15:46:00.892Z,71.40
2018-01-04T15:48:28.530Z,71.80
2018-01-04T15:50:56.195Z,71.60
2018-01-04T15:53:23.890Z,71.70
2018-01-04T15:55:51.551Z,71.70
2018-01-04T15:58:19.156Z,71.70
2018-01-04T16:00:46.896Z,71.80
2018-01-04T16:03:14.528Z,71.80
2018-01-04T16:05:42.922Z,73.20
2018-01-04T16:08:11.357Z,72.40
2018-01-04T16:10:38.982Z,72.40
2018-01-04T16:13:07.702Z,72.30
2018-01-04T16:15:35.430Z,72.30
2018-01-04T16:18:03.825Z,71.90
2018-01-04T16:20:31.465Z,71.80
2018-01-04T16:22:59.067Z,71.90
2018-01-04T16:25:26.710Z,72.40
2018-01-04T16:27:55.101Z,73.20
2018-01-04T16:30:23.466Z,73.60
2018-01-04T16:32:51.085Z,73.60
2018-01-04T16:35:18.698Z,74.30
2018-01-04T16:37:46.319Z,73.90
2018-01-04T16:40:13.923Z,75.40
2018-01-04T16:42:42.308Z,75.90
2018-01-04T16:45:09.940Z,75.90
2018-01-04T16:47:37.653Z,75.80
2018-01-04T16:50:06.054Z,75.80
2018-01-04T16:52:33.746Z,75.80
2018-01-04T16:55:01.355Z,76.00
2018-01-04T16:57:29.747Z,77.00
2018-01-04T16:59:57.347Z,77.10
2018-01-04T17:02:24.983Z,79.30
2018-01-04T17:04:53.559Z,81.70
2018-01-04T17:07:21.306Z,81.70
2018-01-04T17:09:48.930Z,82.30
2018-01-04T17:12:16.615Z,82.70
2018-01-04T17:14:44.234Z,82.70
2018-01-04T17:17:12.608Z,81.90
2018-01-04T17:19:40.238Z,81.90
2018-01-04T17:22:07.842Z,81.30
2018-01-04T17:24:35.520Z,80.70
2018-01-04T17:27:03.177Z,80.20
2018-01-04T17:29:30.775Z,80.00
2018-01-04T17:31:58.401Z,79.80
2018-01-04T17:34:26.958Z,79.50
2018-01-04T17:36:54.582Z,79.50
2018-01-04T17:39:22.964Z,79.30
2018-01-04T17:41:51.348Z,79.30
2018-01-04T17:44:19.877Z,79.20
2018-01-04T17:46:47.498Z,79.10
2018-01-04T17:49:15.872Z,79.10
2018-01-04T17:51:43.508Z,79.00
2018-01-04T17:54:11.157Z,79.00
2018-01-04T17:56:38.782Z,79.30
2018-01-04T17:59:07.174Z,79.20
2018-01-04T18:01:34.794Z,79.20
2018-01-04T18:04:02.440Z,79.20
2018-01-04T18:06:30.083Z,79.20
2018-01-04T18:08:57.725Z,79.30
2018-01-04T18:11:26.100Z,79.50
2018-01-04T18:13:53.804Z,79.40
2018-01-04T18:16:21.468Z,79.50
2018-01-04T18:18:49.122Z,79.50
2018-01-04T18:21:16.771Z,79.60
2018-01-04T18:23:45.165Z,79.70
2018-01-04T18:26:13.663Z,79.60
2018-01-04T18:28:41.541Z,79.50
2018-01-04T18:31:09.165Z,79.50
2018-01-04T18:33:37.569Z,80.40
2018-01-04T18:36:06.117Z,79.60
2018-01-04T18:38:33.768Z,79.60
2018-01-04T18:41:01.496Z,79.60
2018-01-04T18:43:30.877Z,79.50
2018-01-04T18:45:59.324Z,79.60
2018-01-04T18:48:26.928Z,79.50
2018-01-04T18:50:54.617Z,79.40
2018-01-04T18:53:22.272Z,79.50
2018-01-04T18:55:50.693Z,79.30
2018-01-04T18:58:18.365Z,79.30
2018-01-04T19:00:46.023Z,79.20
2018-01-04T19:03:14.392Z,78.90
2018-01-04T19:05:42.827Z,78.60
2018-01-04T19:08:10.461Z,78.70
2018-01-04T19:10:38.090Z,78.50
2018-01-04T19:13:06.479Z,78.40
2018-01-04T19:15:34.990Z,78.10
2018-01-04T19:18:02.626Z,78.10
2018-01-04T19:20:30.360Z,77.70
2018-01-04T19:22:58.051Z,77.70
2018-01-04T19:25:25.655Z,77.30
2018-01-04T19:27:53.325Z,77.30
2018-01-04T19:30:20.960Z,76.90
2018-01-04T19:32:49.418Z,76.90
2018-01-04T19:35:17.058Z,76.90
2018-01-04T19:37:44.701Z,77.40
2018-01-04T19:40:12.396Z,77.10
2018-01-04T19:42:40.116Z,77.00
2018-01-04T19:45:08.604Z,77.00
2018-01-04T19:47:37.001Z,77.10
2018-01-04T19:50:05.974Z,77.00
2018-01-04T19:52:34.424Z,76.40
2018-01-04T19:55:02.972Z,76.40
2018-01-04T19:57:30.698Z,76.40
2018-01-04T19:59:58.370Z,75.90
2018-01-04T20:02:26.855Z,76.20
2018-01-04T20:04:54.574Z,75.30
2018-01-04T20:07:22.349Z,75.50
2018-01-04T20:09:50.005Z,75.30
2018-01-04T20:12:17.683Z,75.50
2018-01-04T20:14:45.515Z,75.40
2018-01-04T20:17:14.027Z,75.50
2018-01-04T20:19:41.723Z,75.50
2018-01-04T20:22:09.463Z,75.50
2018-01-04T20:24:37.286Z,75.50
2018-01-04T20:27:05.844Z,75.50
2018-01-04T20:29:33.538Z,76.30
2018-01-04T20:32:02.752Z,75.60
2018-01-04T20:34:30.418Z,75.50
2018-01-04T20:36:58.041Z,75.50
2018-01-04T20:39:25.702Z,75.50
2018-01-04T20:41:53.368Z,75.60
2018-01-04T20:44:21.054Z,75.50
2018-01-04T20:46:49.537Z,75.50
2018-01-04T20:49:17.895Z,75.50
2018-01-04T20:51:45.606Z,75.30
2018-01-04T20:54:13.331Z,75.30
2018-01-04T20:56:41.044Z,75.50
2018-01-04T20:59:08.914Z,75.20
2018-01-04T21:01:36.654Z,75.20
2018-01-04T21:04:04.462Z,75.20
2018-01-04T21:06:32.693Z,74.90
2018-01-04T21:09:01.276Z,75.10
2018-01-04T21:11:29.709Z,75.00
2018-01-04T21:13:57.538Z,75.00
2018-01-04T21:16:25.547Z,75.10
2018-01-04T21:18:53.478Z,75.10
2018-01-04T21:21:23.008Z,75.30
2018-01-04T21:23:52.194Z,75.20
2018-01-04T21:26:20.184Z,75.30
2018-01-04T21:28:48.381Z,75.30
2018-01-04T21:31:16.157Z,75.60
2018-01-04T21:33:44.380Z,75.70
2018-01-04T21:36:12.127Z,75.80
2018-01-04T21:38:42.417Z,76.30
2018-01-04T21:41:10.153Z,76.20
2018-01-04T21:43:37.948Z,76.30
2018-01-04T21:46:05.860Z,76.50
2018-01-04T21:48:34.500Z,76.80
2018-01-04T21:51:02.256Z,76.80
2018-01-04T21:53:30.153Z,76.80
2018-01-04T21:55:57.916Z,76.90
2018-01-04T21:58:25.784Z,76.80
2018-01-04T22:00:53.660Z,76.50
2018-01-04T22:03:21.622Z,76.40
2018-01-04T22:05:49.690Z,76.40
2018-01-04T22:08:17.765Z,76.00
2018-01-04T22:10:45.515Z,75.80
2018-01-04T22:13:13.268Z,75.50
2018-01-04T22:15:40.991Z,75.40
2018-01-04T22:18:08.784Z,75.20
2018-01-04T22:20:36.494Z,74.90
2018-01-04T22:23:04.169Z,74.70
2018-01-04T22:25:31.812Z,74.60
2018-01-04T22:28:00.278Z,74.10
2018-01-04T22:30:27.989Z,74.00
2018-01-04T22:32:55.748Z,73.50
2018-01-04T22:35:23.400Z,73.60
2018-01-04T22:37:51.001Z,73.20
2018-01-04T22:40:19.383Z,71.90
2018-01-04T22:42:47.052Z,72.00
2018-01-04T22:45:14.697Z,71.10
2018-01-04T22:47:42.391Z,70.90
2018-01-04T22:50:10.006Z,70.70
2018-01-04T22:52:38.618Z,70.30
2018-01-04T22:55:07.027Z,69.90
2018-01-04T22:57:34.635Z,69.90
2018-01-04T23:00:02.421Z,69.70
2018-01-04T23:02:30.026Z,69.70
2018-01-04T23:04:57.789Z,69.80
2018-01-04T23:07:25.388Z,69.30
2018-01-04T23:09:53.699Z,69.10
2018-01-04T23:12:22.089Z,69.40
2018-01-04T23:14:50.469Z,68.90
2018-01-04T23:17:18.099Z,68.90
2018-01-04T23:19:45.732Z,69.50
2018-01-04T23:22:13.405Z,68.70
2018-01-04T23:24:41.015Z,68.50
2018-01-04T23:27:08.629Z,67.80
2018-01-04T23:29:36.263Z,67.80
2018-01-04T23:32:03.859Z,67.20
2018-01-04T23:34:31.521Z,67.00
2018-01-04T23:36:59.909Z,66.10
2018-01-04T23:39:27.631Z,66.10
2018-01-04T23:41:55.287Z,66.20
2018-01-04T23:44:22.909Z,65.70
2018-01-04T23:46:50.527Z,65.50
2018-01-04T23:49:18.132Z,65.60
2018-01-04T23:51:46.535Z,65.00
2018-01-04T23:54:14.173Z,65.00
2018-01-04T23:56:42.552Z,64.00
2018-01-04T23:59:10.940Z,63.90
